Have a Safe July 4th! 

Flight Track Log - Related Links

Times and Time Zones

All times are in EDT time to prevent confusion due to time zone crossing. See the FLG4250 flight status page for this flight to view local times or setup timezone preferences in your user account.

Time Position Orientation Groundspeed Altitude Reporting Facility
EDT Latitude Longitude Course Direction KTS MPH feet Rate Location/Type
Wed 06:15:32 PM 42.1994 -83.3581 82° East 148 170 1,400  Level Cleveland Center
Wed 06:16:28 PM 42.1558 -83.3561 178° South 192 221 2,800 1,655 Climbing Cleveland Center
Wed 06:17:28 PM 42.1019 -83.3397 167° South 245 282 4,600 2,200 Climbing Cleveland Center
Wed 06:18:00 PM 42.2846 -82.9102 75° East  Level FlightAware Approximate
Wed 06:18:28 PM 42.0686 -83.2461 116° Southeast 277 319 7,200  Level Cleveland Center
Wed 06:19:00 PM 42.3139 -82.7638 75° East  Level FlightAware Approximate
Wed 06:19:28 PM 42.1067 -83.1300 66° East 306 352 9,400  Level Cleveland Center
Wed 06:20:00 PM 42.3303 -82.6138 82° East  Level FlightAware Approximate
Wed 06:20:28 PM 42.1486 -83.0253 62° Northeast 325 374 11,200  Level Cleveland Center
Wed 06:21:28 PM 42.1906 -82.9147 63° Northeast 347 399 12,700 900 Climbing Cleveland Center
Wed 06:22:28 PM 42.2325 -82.8042 63° Northeast 360 414 13,000 150 Climbing Cleveland Center
Wed 06:23:28 PM 42.2783 -82.6822 63° Northeast 367 422 13,000 200 Level Cleveland Center
Wed 06:24:28 PM 42.3200 -82.5742 62° Northeast 361 415 13,400 900 Climbing Cleveland Center
Wed 06:25:28 PM 42.3639 -82.4464 65° Northeast 361 415 14,800 1,450 Climbing Cleveland Center
Wed 06:26:28 PM 42.3597 -82.3056 92° East 361 415 16,300 1,500 Climbing Cleveland Center
Wed 06:27:28 PM 42.3536 -82.1594 93° East 368 423 17,800 1,500 Climbing Cleveland Center
Wed 06:28:28 PM 42.3494 -81.9964 92° East 376 433 19,300 1,250 Climbing Cleveland Center
Wed 06:29:28 PM 42.3406 -81.8528 95° East 383 441 20,300 850 Climbing Cleveland Center
Wed 06:30:28 PM 42.3361 -81.6983 92° East 400 460 21,000 450 Climbing Cleveland Center
Wed 06:31:28 PM 42.3269 -81.5408 94° East 411 473 21,200 400 Climbing Cleveland Center
Wed 06:32:28 PM 42.3197 -81.3864 94° East 404 465 21,800 550 Climbing Cleveland Center
Wed 06:33:28 PM 42.3125 -81.2233 93° East 425 489 22,300 500 Climbing Cleveland Center
Wed 06:34:28 PM 42.3050 -81.0603 94° East 430 495 22,800 450 Climbing Cleveland Center
Wed 06:35:28 PM 42.2950 -80.9061 95° East 440 506 23,200 450 Climbing Cleveland Center
Wed 06:36:28 PM 42.3225 -80.7461 77° East 440 506 23,700 500 Climbing Cleveland Center
Wed 06:37:28 PM 42.3539 -80.5775 76° East 452 520 24,200 550 Climbing Cleveland Center
Wed 06:38:28 PM 42.3872 -80.4117 75° East 452 520 24,800 400 Climbing Cleveland Center
Wed 06:39:28 PM 42.4181 -80.2400 76° East 457 526 25,000 100 Climbing Cleveland Center
Wed 06:40:28 PM 42.4528 -80.0711 74° East 457 526 25,000  Level Cleveland Center
Wed 06:41:28 PM 42.4914 -79.8764 75° East 467 537 25,000  Level Cleveland Center
Wed 06:42:28 PM 42.5214 -79.7014 77° East 473 544 25,000  Level Cleveland Center
Wed 06:43:28 PM 42.5533 -79.5233 76° East 473 544 25,000  Level Cleveland Center
Wed 06:44:28 PM 42.5869 -79.3453 76° East 478 550 25,000  Level Cleveland Center
Wed 06:45:28 PM 42.6161 -79.1642 78° East 483 556 25,000  Level Cleveland Center
Wed 06:46:28 PM 42.6433 -79.0081 77° East 483 556 25,000  Level Cleveland Center
Wed 06:47:28 PM 42.6761 -78.8294 76° East 483 556 25,000  Level Cleveland Center
Wed 06:48:28 PM 42.7067 -78.6478 77° East 488 562 25,000  Level Cleveland Center
Wed 06:49:28 PM 42.7369 -78.4686 77° East 488 562 25,000  Level Cleveland Center
Wed 06:50:28 PM 42.7689 -78.2894 76° East 488 562 25,000 -650 Level Cleveland Center
Wed 06:51:28 PM 42.7692 -78.1028 90° East 488 562 23,700 -1,600 Descending Cleveland Center
Wed 06:52:28 PM 42.7653 -77.9275 92° East 476 548 21,800 -2,000 Descending Cleveland Center
Wed 06:53:28 PM 42.7656 -77.7606 90° East 454 522 19,700 -1,600 Descending Cleveland Center
Wed 06:54:28 PM 42.7886 -77.6067 78° East 430 495 18,600 -1,050 Descending Cleveland Center
Wed 06:55:28 PM 42.8244 -77.4550 72° East 417 480 17,600 -992 Descending Cleveland Center
Wed 06:56:29 PM 42.8831 -77.3217 59° Northeast 403 464 16,600 -1,000 Descending Cleveland Center
Wed 06:57:28 PM 42.9506 -77.1961 54° Northeast 403 464 15,600 -1,000 Descending Cleveland Center
Wed 06:59:59 PM 43.0475 -76.8275 70° East 421 484 13,100 -1,088 Descending Boston Center
Wed 07:01:03 PM 43.0625 -76.6494 83° East 405 466 11,700 -1,125 Descending Boston Center
Wed 07:02:07 PM 43.0761 -76.5025 83° East 384 442 10,700 -879 Descending Boston Center
Wed 07:02:59 PM 43.0925 -76.3928 78° East 319 367 10,000 -1,487 Descending Boston Center
Wed 07:04:00 PM 43.1356 -76.2958 59° Northeast 287 330 7,900 -1,983 Descending Boston Center
Wed 07:05:00 PM 43.1783 -76.1989 59° Northeast 287 330 6,000 -1,488 Descending Boston Center
Wed 07:06:01 PM 43.1858 -76.0939 84° East 265 305 4,900 -934 Descending Boston Center
Wed 07:07:02 PM 43.1908 -76.0058 86° East 222 255 4,100 -1,033 Descending Boston Center
Wed 07:08:03 PM 43.1458 -75.9806 158° South 177 204 2,800 -1,122 Descending Boston Center
Wed 07:09:05 PM 43.1133 -76.0156 218° Southwest 146 168 1,800 -934 Descending Boston Center
Wed 07:10:05 PM 43.1117 -76.0694 268° West 141 162 900 -900 Descending Boston Center

Login

Don't have an account? Register now (free) for customized features, flight alerts, and more!